sensor_id;sensor_type;location;lat;lon;timestamp;pressure;altitude;pressure_sealevel;temperature
73761;BMP280;69240;43.530;-5.646;2023-04-24T00:01:21;101579.94;;;15.48
73761;BMP280;69240;43.530;-5.646;2023-04-24T00:03:47;101578.47;;;15.47
73761;BMP280;69240;43.530;-5.646;2023-04-24T00:06:12;101587.78;;;15.46
73761;BMP280;69240;43.530;-5.646;2023-04-24T00:08:38;101576.44;;;15.56
73761;BMP280;69240;43.530;-5.646;2023-04-24T00:11:04;101574.66;;;15.39
73761;BMP280;69240;43.530;-5.646;2023-04-24T00:13:29;101575.69;;;15.56
73761;BMP280;69240;43.530;-5.646;2023-04-24T00:15:55;101582.91;;;15.64
73761;BMP280;69240;43.530;-5.646;2023-04-24T00:18:21;101583.28;;;15.57
73761;BMP280;69240;43.530;-5.646;2023-04-24T00:20:47;101579.06;;;15.51
73761;BMP280;69240;43.530;-5.646;2023-04-24T00:23:12;101577.53;;;15.50
73761;BMP280;69240;43.530;-5.646;2023-04-24T00:25:38;101577.16;;;15.42
73761;BMP280;69240;43.530;-5.646;2023-04-24T00:28:05;101587.59;;;15.35
73761;BMP280;69240;43.530;-5.646;2023-04-24T00:30:31;101581.84;;;15.27
73761;BMP280;69240;43.530;-5.646;2023-04-24T00:32:57;101576.63;;;15.24
73761;BMP280;69240;43.530;-5.646;2023-04-24T00:35:22;101583.13;;;15.32
73761;BMP280;69240;43.530;-5.646;2023-04-24T00:37:48;101581.91;;;15.33
73761;BMP280;69240;43.530;-5.646;2023-04-24T00:40:14;101575.31;;;15.34
73761;BMP280;69240;43.530;-5.646;2023-04-24T00:42:40;101569.66;;;15.32
73761;BMP280;69240;43.530;-5.646;2023-04-24T00:45:06;101572.88;;;15.36
73761;BMP280;69240;43.530;-5.646;2023-04-24T00:47:33;101568.09;;;15.40
73761;BMP280;69240;43.530;-5.646;2023-04-24T00:50:02;101571.97;;;15.39
73761;BMP280;69240;43.530;-5.646;2023-04-24T00:52:27;101566.66;;;15.30
73761;BMP280;69240;43.530;-5.646;2023-04-24T00:54:53;101563.22;;;15.29
73761;BMP280;69240;43.530;-5.646;2023-04-24T00:57:19;101562.09;;;15.36
73761;BMP280;69240;43.530;-5.646;2023-04-24T00:59:45;101558.94;;;15.37
73761;BMP280;69240;43.530;-5.646;2023-04-24T01:02:11;101561.75;;;15.43
73761;BMP280;69240;43.530;-5.646;2023-04-24T01:04:38;101563.41;;;15.40
73761;BMP280;69240;43.530;-5.646;2023-04-24T01:07:04;101571.97;;;15.39
73761;BMP280;69240;43.530;-5.646;2023-04-24T01:09:36;101558.75;;;15.41
73761;BMP280;69240;43.530;-5.646;2023-04-24T01:12:02;101547.97;;;15.41
73761;BMP280;69240;43.530;-5.646;2023-04-24T01:14:28;101541.63;;;15.15
73761;BMP280;69240;43.530;-5.646;2023-04-24T01:16:53;101553.16;;;15.30
73761;BMP280;69240;43.530;-5.646;2023-04-24T01:19:19;101557.00;;;15.38
73761;BMP280;69240;43.530;-5.646;2023-04-24T01:21:47;101544.75;;;15.22
73761;BMP280;69240;43.530;-5.646;2023-04-24T01:24:15;101555.25;;;15.35
73761;BMP280;69240;43.530;-5.646;2023-04-24T01:26:41;101551.97;;;15.31
73761;BMP280;69240;43.530;-5.646;2023-04-24T01:29:07;101557.66;;;15.33
73761;BMP280;69240;43.530;-5.646;2023-04-24T01:31:33;101548.72;;;15.27
73761;BMP280;69240;43.530;-5.646;2023-04-24T01:33:59;101552.56;;;15.35
73761;BMP280;69240;43.530;-5.646;2023-04-24T01:36:25;101545.38;;;15.32
73761;BMP280;69240;43.530;-5.646;2023-04-24T01:38:52;101556.16;;;15.32
73761;BMP280;69240;43.530;-5.646;2023-04-24T01:41:18;101540.00;;;15.32
73761;BMP280;69240;43.530;-5.646;2023-04-24T01:43:44;101534.88;;;15.34
73761;BMP280;69240;43.530;-5.646;2023-04-24T01:46:09;101524.75;;;15.29
73761;BMP280;69240;43.530;-5.646;2023-04-24T01:48:35;101524.81;;;15.20
73761;BMP280;69240;43.530;-5.646;2023-04-24T01:51:01;101517.13;;;15.13
73761;BMP280;69240;43.530;-5.646;2023-04-24T01:53:27;101523.25;;;14.99
73761;BMP280;69240;43.530;-5.646;2023-04-24T01:55:52;101515.63;;;14.83
73761;BMP280;69240;43.530;-5.646;2023-04-24T01:58:18;101515.41;;;14.72
73761;BMP280;69240;43.530;-5.646;2023-04-24T02:00:44;101513.91;;;14.71
73761;BMP280;69240;43.530;-5.646;2023-04-24T02:03:09;101498.09;;;14.64
73761;BMP280;69240;43.530;-5.646;2023-04-24T02:05:35;101506.28;;;14.55
73761;BMP280;69240;43.530;-5.646;2023-04-24T02:08:00;101517.38;;;14.48
73761;BMP280;69240;43.530;-5.646;2023-04-24T02:10:26;101511.09;;;14.51
73761;BMP280;69240;43.530;-5.646;2023-04-24T02:12:51;101507.75;;;14.56
73761;BMP280;69240;43.530;-5.646;2023-04-24T02:15:17;101499.97;;;14.58
73761;BMP280;69240;43.530;-5.646;2023-04-24T02:17:43;101510.38;;;14.65
73761;BMP280;69240;43.530;-5.646;2023-04-24T02:20:08;101500.66;;;14.67
73761;BMP280;69240;43.530;-5.646;2023-04-24T02:22:34;101508.00;;;14.81
73761;BMP280;69240;43.530;-5.646;2023-04-24T02:25:00;101500.94;;;14.84
73761;BMP280;69240;43.530;-5.646;2023-04-24T02:27:26;101508.72;;;14.82
73761;BMP280;69240;43.530;-5.646;2023-04-24T02:29:51;101505.13;;;14.85
73761;BMP280;69240;43.530;-5.646;2023-04-24T02:32:17;101502.94;;;14.74
73761;BMP280;69240;43.530;-5.646;2023-04-24T02:34:42;101498.63;;;14.77
73761;BMP280;69240;43.530;-5.646;2023-04-24T02:37:08;101494.97;;;14.80
73761;BMP280;69240;43.530;-5.646;2023-04-24T02:39:33;101493.22;;;14.77
73761;BMP280;69240;43.530;-5.646;2023-04-24T02:41:59;101498.69;;;14.68
73761;BMP280;69240;43.530;-5.646;2023-04-24T02:44:25;101492.44;;;14.62
73761;BMP280;69240;43.530;-5.646;2023-04-24T02:46:50;101497.00;;;14.56
73761;BMP280;69240;43.530;-5.646;2023-04-24T02:49:16;101491.03;;;14.52
73761;BMP280;69240;43.530;-5.646;2023-04-24T02:51:41;101490.97;;;14.61
73761;BMP280;69240;43.530;-5.646;2023-04-24T02:54:08;101492.81;;;14.55
73761;BMP280;69240;43.530;-5.646;2023-04-24T02:56:35;101481.69;;;14.62
73761;BMP280;69240;43.530;-5.646;2023-04-24T02:59:00;101486.75;;;14.60
73761;BMP280;69240;43.530;-5.646;2023-04-24T03:01:26;101492.34;;;14.71
73761;BMP280;69240;43.530;-5.646;2023-04-24T03:03:51;101483.63;;;14.76
73761;BMP280;69240;43.530;-5.646;2023-04-24T03:06:17;101479.00;;;14.76
73761;BMP280;69240;43.530;-5.646;2023-04-24T03:08:42;101477.72;;;14.72
73761;BMP280;69240;43.530;-5.646;2023-04-24T03:11:08;101483.09;;;14.72
73761;BMP280;69240;43.530;-5.646;2023-04-24T03:13:33;101484.38;;;14.76
73761;BMP280;69240;43.530;-5.646;2023-04-24T03:15:58;101482.34;;;14.86
73761;BMP280;69240;43.530;-5.646;2023-04-24T03:18:24;101473.06;;;14.87
73761;BMP280;69240;43.530;-5.646;2023-04-24T03:20:50;101475.09;;;14.77
73761;BMP280;69240;43.530;-5.646;2023-04-24T03:23:16;101467.47;;;14.76
73761;BMP280;69240;43.530;-5.646;2023-04-24T03:25:41;101471.00;;;14.82
73761;BMP280;69240;43.530;-5.646;2023-04-24T03:28:08;101469.81;;;14.83
73761;BMP280;69240;43.530;-5.646;2023-04-24T03:30:33;101473.06;;;14.87
73761;BMP280;69240;43.530;-5.646;2023-04-24T03:33:00;101473.44;;;14.80
73761;BMP280;69240;43.530;-5.646;2023-04-24T03:35:25;101471.00;;;14.82
73761;BMP280;69240;43.530;-5.646;2023-04-24T03:37:51;101471.94;;;14.79
73761;BMP280;69240;43.530;-5.646;2023-04-24T03:40:16;101476.19;;;14.85
73761;BMP280;69240;43.530;-5.646;2023-04-24T03:42:42;101472.06;;;14.84
73761;BMP280;69240;43.530;-5.646;2023-04-24T03:45:08;101464.88;;;14.81
73761;BMP280;69240;43.530;-5.646;2023-04-24T03:47:34;101464.97;;;14.87
73761;BMP280;69240;43.530;-5.646;2023-04-24T03:49:59;101472.81;;;14.85
73761;BMP280;69240;43.530;-5.646;2023-04-24T03:52:25;101478.19;;;14.85
73761;BMP280;69240;43.530;-5.646;2023-04-24T03:54:50;101471.94;;;14.79
73761;BMP280;69240;43.530;-5.646;2023-04-24T03:57:16;101488.38;;;14.81
73761;BMP280;69240;43.530;-5.646;2023-04-24T03:59:41;101479.75;;;14.77
73761;BMP280;69240;43.530;-5.646;2023-04-24T04:02:07;101476.97;;;14.86
73761;BMP280;69240;43.530;-5.646;2023-04-24T04:04:32;101484.78;;;14.84
73761;BMP280;69240;43.530;-5.646;2023-04-24T04:06:58;101474.16;;;14.80
73761;BMP280;69240;43.530;-5.646;2023-04-24T04:09:26;101478.25;;;14.76
73761;BMP280;69240;43.530;-5.646;2023-04-24T04:11:52;101470.81;;;14.71
73761;BMP280;69240;43.530;-5.646;2023-04-24T04:14:17;101479.25;;;14.64
73761;BMP280;69240;43.530;-5.646;2023-04-24T04:16:43;101460.97;;;14.68
73761;BMP280;69240;43.530;-5.646;2023-04-24T04:19:09;101458.22;;;14.77
73761;BMP280;69240;43.530;-5.646;2023-04-24T04:21:34;101456.69;;;14.76
73761;BMP280;69240;43.530;-5.646;2023-04-24T04:24:00;101458.00;;;14.66
73761;BMP280;69240;43.530;-5.646;2023-04-24T04:26:25;101451.41;;;14.67
73761;BMP280;69240;43.530;-5.646;2023-04-24T04:28:51;101458.94;;;14.63
73761;BMP280;69240;43.530;-5.646;2023-04-24T04:31:19;101452.06;;;14.62
73761;BMP280;69240;43.530;-5.646;2023-04-24T04:33:44;101448.69;;;14.52
73761;BMP280;69240;43.530;-5.646;2023-04-24T04:36:10;101454.81;;;14.53
73761;BMP280;69240;43.530;-5.646;2023-04-24T04:38:36;101459.75;;;14.54
73761;BMP280;69240;43.530;-5.646;2023-04-24T04:41:02;101455.97;;;14.61
73761;BMP280;69240;43.530;-5.646;2023-04-24T04:43:28;101465.03;;;14.63
73761;BMP280;69240;43.530;-5.646;2023-04-24T04:45:53;101461.34;;;14.61
73761;BMP280;69240;43.530;-5.646;2023-04-24T04:48:20;101465.53;;;14.62
73761;BMP280;69240;43.530;-5.646;2023-04-24T04:50:45;101467.00;;;14.63
73761;BMP280;69240;43.530;-5.646;2023-04-24T04:53:11;101466.38;;;14.68
73761;BMP280;69240;43.530;-5.646;2023-04-24T04:55:37;101457.06;;;14.69
73761;BMP280;69240;43.530;-5.646;2023-04-24T04:58:02;101466.53;;;14.64
73761;BMP280;69240;43.530;-5.646;2023-04-24T05:00:28;101467.28;;;14.65
73761;BMP280;69240;43.530;-5.646;2023-04-24T05:02:59;101461.88;;;14.65
73761;BMP280;69240;43.530;-5.646;2023-04-24T05:05:24;101464.31;;;14.63
73761;BMP280;69240;43.530;-5.646;2023-04-24T05:07:50;101461.34;;;14.61
73761;BMP280;69240;43.530;-5.646;2023-04-24T05:10:15;101465.78;;;14.64
73761;BMP280;69240;43.530;-5.646;2023-04-24T05:12:41;101466.72;;;14.61
73761;BMP280;69240;43.530;-5.646;2023-04-24T05:15:07;101474.63;;;14.64
73761;BMP280;69240;43.530;-5.646;2023-04-24T05:17:32;101466.09;;;14.66
73761;BMP280;69240;43.530;-5.646;2023-04-24T05:19:58;101478.88;;;14.71
73761;BMP280;69240;43.530;-5.646;2023-04-24T05:22:23;101485.50;;;14.70
73761;BMP280;69240;43.530;-5.646;2023-04-24T05:24:49;101490.59;;;14.68
73761;BMP280;69240;43.530;-5.646;2023-04-24T05:27:15;101485.84;;;14.63
73761;BMP280;69240;43.530;-5.646;2023-04-24T05:29:40;101494.97;;;14.65
73761;BMP280;69240;43.530;-5.646;2023-04-24T05:32:06;101502.09;;;14.68
73761;BMP280;69240;43.530;-5.646;2023-04-24T05:34:32;101502.84;;;14.69
73761;BMP280;69240;43.530;-5.646;2023-04-24T05:36:57;101508.81;;;14.73
73761;BMP280;69240;43.530;-5.646;2023-04-24T05:39:23;101514.41;;;14.84
73761;BMP280;69240;43.530;-5.646;2023-04-24T05:41:50;101510.44;;;14.94
73761;BMP280;69240;43.530;-5.646;2023-04-24T05:44:16;101513.19;;;14.99
73761;BMP280;69240;43.530;-5.646;2023-04-24T05:46:41;101510.22;;;14.97
73761;BMP280;69240;43.530;-5.646;2023-04-24T05:49:07;101508.75;;;14.96
73761;BMP280;69240;43.530;-5.646;2023-04-24T05:51:32;101505.03;;;14.94
73761;BMP280;69240;43.530;-5.646;2023-04-24T05:53:58;101511.72;;;14.84
73761;BMP280;69240;43.530;-5.646;2023-04-24T05:56:24;101511.13;;;14.80
73761;BMP280;69240;43.530;-5.646;2023-04-24T05:58:49;101524.00;;;14.85
73761;BMP280;69240;43.530;-5.646;2023-04-24T06:01:15;101508.19;;;14.92
73761;BMP280;69240;43.530;-5.646;2023-04-24T06:03:41;101506.53;;;14.95
73761;BMP280;69240;43.530;-5.646;2023-04-24T06:06:08;101509.47;;;14.97
73761;BMP280;69240;43.530;-5.646;2023-04-24T06:08:34;101503.00;;;15.03
73761;BMP280;69240;43.530;-5.646;2023-04-24T06:11:00;101508.94;;;15.07
73761;BMP280;69240;43.530;-5.646;2023-04-24T06:13:25;101511.97;;;15.15
73761;BMP280;69240;43.530;-5.646;2023-04-24T06:15:51;101521.66;;;15.21
73761;BMP280;69240;43.530;-5.646;2023-04-24T06:18:16;101518.41;;;15.32
73761;BMP280;69240;43.530;-5.646;2023-04-24T06:20:42;101517.97;;;15.33
73761;BMP280;69240;43.530;-5.646;2023-04-24T06:23:08;101528.97;;;15.35
73761;BMP280;69240;43.530;-5.646;2023-04-24T06:25:34;101523.75;;;15.46
73761;BMP280;69240;43.530;-5.646;2023-04-24T06:28:00;101525.47;;;15.44
73761;BMP280;69240;43.530;-5.646;2023-04-24T06:30:26;101525.47;;;15.44
73761;BMP280;69240;43.530;-5.646;2023-04-24T06:32:53;101526.88;;;15.39
73761;BMP280;69240;43.530;-5.646;2023-04-24T06:35:18;101527.16;;;15.41
73761;BMP280;69240;43.530;-5.646;2023-04-24T06:37:45;101526.22;;;15.44
73761;BMP280;69240;43.530;-5.646;2023-04-24T06:40:11;101528.47;;;15.46
73761;BMP280;69240;43.530;-5.646;2023-04-24T06:42:37;101531.41;;;15.48
73761;BMP280;69240;43.530;-5.646;2023-04-24T06:45:03;101525.81;;;15.51
73761;BMP280;69240;43.530;-5.646;2023-04-24T06:47:29;101524.81;;;15.49
73761;BMP280;69240;43.530;-5.646;2023-04-24T06:49:55;101533.44;;;15.53
73761;BMP280;69240;43.530;-5.646;2023-04-24T06:52:21;101524.16;;;15.54
73761;BMP280;69240;43.530;-5.646;2023-04-24T06:54:47;101524.69;;;15.58
73761;BMP280;69240;43.530;-5.646;2023-04-24T06:57:12;101517.41;;;15.64
73761;BMP280;69240;43.530;-5.646;2023-04-24T06:59:38;101518.75;;;15.54
73761;BMP280;69240;43.530;-5.646;2023-04-24T07:02:04;101518.94;;;15.65
73761;BMP280;69240;43.530;-5.646;2023-04-24T07:04:30;101512.84;;;15.70
73761;BMP280;69240;43.530;-5.646;2023-04-24T07:06:56;101519.09;;;15.76
73761;BMP280;69240;43.530;-5.646;2023-04-24T07:09:24;101521.09;;;15.81
73761;BMP280;69240;43.530;-5.646;2023-04-24T07:11:51;101517.75;;;15.86
73761;BMP280;69240;43.530;-5.646;2023-04-24T07:14:17;101526.22;;;15.79
73761;BMP280;69240;43.530;-5.646;2023-04-24T07:16:43;101529.19;;;15.81
73761;BMP280;69240;43.530;-5.646;2023-04-24T07:19:09;101522.94;;;15.89
73761;BMP280;69240;43.530;-5.646;2023-04-24T07:21:35;101522.09;;;15.98
73761;BMP280;69240;43.530;-5.646;2023-04-24T07:24:01;101519.09;;;16.16
73761;BMP280;69240;43.530;-5.646;2023-04-24T07:26:28;101509.94;;;16.28
73761;BMP280;69240;43.530;-5.646;2023-04-24T07:28:54;101518.50;;;16.26
73761;BMP280;69240;43.530;-5.646;2023-04-24T07:31:20;101508.44;;;16.27
73761;BMP280;69240;43.530;-5.646;2023-04-24T07:33:46;101498.72;;;16.35
73761;BMP280;69240;43.530;-5.646;2023-04-24T07:36:30;101515.69;;;16.35
73761;BMP280;69240;43.530;-5.646;2023-04-24T07:45:26;101504.47;;;16.68
73761;BMP280;69240;43.530;-5.646;2023-04-24T07:47:53;101506.41;;;16.67
73761;BMP280;69240;43.530;-5.646;2023-04-24T07:50:19;101508.53;;;16.83
73761;BMP280;69240;43.530;-5.646;2023-04-24T07:52:45;101509.91;;;16.99
73761;BMP280;69240;43.530;-5.646;2023-04-24T07:55:15;101506.13;;;17.11
73761;BMP280;69240;43.530;-5.646;2023-04-24T07:57:41;101506.56;;;17.45
73761;BMP280;69240;43.530;-5.646;2023-04-24T08:04:00;101505.66;;;17.59
73761;BMP280;69240;43.530;-5.646;2023-04-24T08:22:37;101497.19;;;17.83
73761;BMP280;69240;43.530;-5.646;2023-04-24T08:25:04;101500.91;;;17.91
73761;BMP280;69240;43.530;-5.646;2023-04-24T08:27:30;101502.38;;;17.86
73761;BMP280;69240;43.530;-5.646;2023-04-24T08:29:56;101509.44;;;18.48
73761;BMP280;69240;43.530;-5.646;2023-04-24T08:32:22;101508.00;;;18.63
73761;BMP280;69240;43.530;-5.646;2023-04-24T08:34:48;101500.88;;;18.82
73761;BMP280;69240;43.530;-5.646;2023-04-24T08:37:13;101508.00;;;19.07
73761;BMP280;69240;43.530;-5.646;2023-04-24T08:39:39;101504.81;;;18.81
73761;BMP280;69240;43.530;-5.646;2023-04-24T08:42:04;101504.56;;;18.79
73761;BMP280;69240;43.530;-5.646;2023-04-24T08:44:33;101504.31;;;18.50
73761;BMP280;69240;43.530;-5.646;2023-04-24T08:47:00;101505.75;;;18.40
73761;BMP280;69240;43.530;-5.646;2023-04-24T08:49:28;101515.34;;;18.35
73761;BMP280;69240;43.530;-5.646;2023-04-24T08:51:54;101521.03;;;18.37
73761;BMP280;69240;43.530;-5.646;2023-04-24T08:54:20;101518.94;;;17.99
73761;BMP280;69240;43.530;-5.646;2023-04-24T08:56:48;101517.56;;;17.78
73761;BMP280;69240;43.530;-5.646;2023-04-24T08:59:17;101527.06;;;17.99
73761;BMP280;69240;43.530;-5.646;2023-04-24T09:01:45;101529.53;;;18.08
73761;BMP280;69240;43.530;-5.646;2023-04-24T09:04:12;101539.97;;;18.26
73761;BMP280;69240;43.530;-5.646;2023-04-24T09:06:40;101541.94;;;18.31
73761;BMP280;69240;43.530;-5.646;2023-04-24T09:09:06;101533.63;;;18.51
73761;BMP280;69240;43.530;-5.646;2023-04-24T09:11:33;101545.34;;;18.15
73761;BMP280;69240;43.530;-5.646;2023-04-24T09:14:00;101541.13;;;18.14
73761;BMP280;69240;43.530;-5.646;2023-04-24T09:16:26;101558.13;;;18.09
73761;BMP280;69240;43.530;-5.646;2023-04-24T09:18:52;101550.09;;;17.84
73761;BMP280;69240;43.530;-5.646;2023-04-24T09:21:20;101542.50;;;17.82
73761;BMP280;69240;43.530;-5.646;2023-04-24T09:23:46;101548.22;;;17.95
73761;BMP280;69240;43.530;-5.646;2023-04-24T09:26:12;101545.69;;;18.45
73761;BMP280;69240;43.530;-5.646;2023-04-24T09:28:40;101549.34;;;18.36
73761;BMP280;69240;43.530;-5.646;2023-04-24T09:31:12;101546.38;;;18.34
73761;BMP280;69240;43.530;-5.646;2023-04-24T09:33:40;101543.91;;;18.36
73761;BMP280;69240;43.530;-5.646;2023-04-24T09:36:05;101554.81;;;18.58
73761;BMP280;69240;43.530;-5.646;2023-04-24T09:38:35;101548.47;;;18.83
73761;BMP280;69240;43.530;-5.646;2023-04-24T09:41:03;101549.94;;;19.06
73761;BMP280;69240;43.530;-5.646;2023-04-24T09:43:30;101564.47;;;18.98
73761;BMP280;69240;43.530;-5.646;2023-04-24T09:46:05;101545.00;;;18.77
73761;BMP280;69240;43.530;-5.646;2023-04-24T09:48:32;101553.91;;;19.05
73761;BMP280;69240;43.530;-5.646;2023-04-24T09:51:00;101564.00;;;19.05
73761;BMP280;69240;43.530;-5.646;2023-04-24T09:53:27;101557.09;;;18.98
73761;BMP280;69240;43.530;-5.646;2023-04-24T09:55:53;101568.66;;;19.15
73761;BMP280;69240;43.530;-5.646;2023-04-24T09:58:24;101572.09;;;19.43
73761;BMP280;69240;43.530;-5.646;2023-04-24T10:00:54;101570.63;;;19.53
73761;BMP280;69240;43.530;-5.646;2023-04-24T10:03:20;101573.25;;;19.86
73761;BMP280;69240;43.530;-5.646;2023-04-24T10:05:46;101577.88;;;20.02
73761;BMP280;69240;43.530;-5.646;2023-04-24T10:08:13;101577.31;;;20.20
73761;BMP280;69240;43.530;-5.646;2023-04-24T10:10:44;101582.66;;;20.31
73761;BMP280;69240;43.530;-5.646;2023-04-24T10:13:12;101585.25;;;20.59
73761;BMP280;69240;43.530;-5.646;2023-04-24T10:15:38;101591.59;;;20.26
73761;BMP280;69240;43.530;-5.646;2023-04-24T10:18:05;101592.03;;;20.41
73761;BMP280;69240;43.530;-5.646;2023-04-24T10:20:32;101597.63;;;20.89
73761;BMP280;69240;43.530;-5.646;2023-04-24T10:22:59;101599.22;;;20.39
73761;BMP280;69240;43.530;-5.646;2023-04-24T10:25:27;101610.22;;;20.57
73761;BMP280;69240;43.530;-5.646;2023-04-24T10:27:54;101611.19;;;21.24
73761;BMP280;69240;43.530;-5.646;2023-04-24T10:30:31;101613.34;;;21.60
73761;BMP280;69240;43.530;-5.646;2023-04-24T10:33:00;101609.94;;;21.25
73761;BMP280;69240;43.530;-5.646;2023-04-24T10:35:26;101620.03;;;21.30
73761;BMP280;69240;43.530;-5.646;2023-04-24T10:37:54;101617.44;;;21.43
73761;BMP280;69240;43.530;-5.646;2023-04-24T10:40:35;101621.13;;;22.12
73761;BMP280;69240;43.530;-5.646;2023-04-24T10:43:08;101618.72;;;22.77
73761;BMP280;69240;43.530;-5.646;2023-04-24T10:45:36;101615.63;;;22.49
73761;BMP280;69240;43.530;-5.646;2023-04-24T10:48:06;101616.84;;;22.53
73761;BMP280;69240;43.530;-5.646;2023-04-24T10:50:47;101606.09;;;22.05
73761;BMP280;69240;43.530;-5.646;2023-04-24T10:53:24;101596.84;;;21.71
73761;BMP280;69240;43.530;-5.646;2023-04-24T10:55:59;101597.34;;;21.22
73761;BMP280;69240;43.530;-5.646;2023-04-24T10:58:41;101596.34;;;20.96
73761;BMP280;69240;43.530;-5.646;2023-04-24T11:01:23;101599.38;;;21.45
73761;BMP280;69240;43.530;-5.646;2023-04-24T11:04:09;101598.88;;;22.26
73761;BMP280;69240;43.530;-5.646;2023-04-24T11:06:36;101596.97;;;22.03
73761;BMP280;69240;43.530;-5.646;2023-04-24T11:09:07;101591.28;;;21.58
73761;BMP280;69240;43.530;-5.646;2023-04-24T11:11:34;101588.00;;;21.65
73761;BMP280;69240;43.530;-5.646;2023-04-24T11:14:02;101591.22;;;22.25
73761;BMP280;69240;43.530;-5.646;2023-04-24T11:16:32;101596.78;;;22.51
73761;BMP280;69240;43.530;-5.646;2023-04-24T11:21:46;101600.22;;;22.20
73761;BMP280;69240;43.530;-5.646;2023-04-24T11:24:36;101600.06;;;22.12
73761;BMP280;69240;43.530;-5.646;2023-04-24T11:27:07;101600.34;;;22.09
73761;BMP280;69240;43.530;-5.646;2023-04-24T11:32:25;101590.91;;;21.91
73761;BMP280;69240;43.530;-5.646;2023-04-24T11:34:54;101600.31;;;22.46
73761;BMP280;69240;43.530;-5.646;2023-04-24T11:37:20;101605.94;;;22.35
73761;BMP280;69240;43.530;-5.646;2023-04-24T11:39:45;101594.72;;;22.38
73761;BMP280;69240;43.530;-5.646;2023-04-24T11:42:14;101592.41;;;22.92
73761;BMP280;69240;43.530;-5.646;2023-04-24T11:44:41;101584.34;;;23.13
73761;BMP280;69240;43.530;-5.646;2023-04-24T11:47:08;101589.19;;;23.07
73761;BMP280;69240;43.530;-5.646;2023-04-24T11:49:36;101584.75;;;22.91
73761;BMP280;69240;43.530;-5.646;2023-04-24T11:52:02;101587.50;;;23.17
73761;BMP280;69240;43.530;-5.646;2023-04-24T11:54:27;101574.41;;;23.41
73761;BMP280;69240;43.530;-5.646;2023-04-24T11:56:53;101573.13;;;23.03
73761;BMP280;69240;43.530;-5.646;2023-04-24T11:59:19;101556.81;;;23.37
73761;BMP280;69240;43.530;-5.646;2023-04-24T12:01:45;101562.50;;;23.13
73761;BMP280;69240;43.530;-5.646;2023-04-24T12:04:11;101563.16;;;23.32
73761;BMP280;69240;43.530;-5.646;2023-04-24T12:06:37;101561.44;;;23.55
73761;BMP280;69240;43.530;-5.646;2023-04-24T12:09:03;101548.38;;;23.73
73761;BMP280;69240;43.530;-5.646;2023-04-24T12:11:28;101555.13;;;24.26
73761;BMP280;69240;43.530;-5.646;2023-04-24T12:13:54;101546.53;;;24.63
73761;BMP280;69240;43.530;-5.646;2023-04-24T12:16:19;101552.06;;;24.50
73761;BMP280;69240;43.530;-5.646;2023-04-24T12:18:45;101543.06;;;24.42
73761;BMP280;69240;43.530;-5.646;2023-04-24T12:21:15;101537.91;;;24.18
73761;BMP280;69240;43.530;-5.646;2023-04-24T12:23:43;101529.31;;;24.14
73761;BMP280;69240;43.530;-5.646;2023-04-24T12:26:09;101536.75;;;24.27
73761;BMP280;69240;43.530;-5.646;2023-04-24T12:28:36;101541.78;;;24.02
73761;BMP280;69240;43.530;-5.646;2023-04-24T12:31:02;101540.66;;;23.39
73761;BMP280;69240;43.530;-5.646;2023-04-24T12:33:27;101527.16;;;23.67
73761;BMP280;69240;43.530;-5.646;2023-04-24T12:35:53;101527.84;;;23.47
73761;BMP280;69240;43.530;-5.646;2023-04-24T12:38:24;101530.94;;;22.73
73761;BMP280;69240;43.530;-5.646;2023-04-24T12:41:08;101532.88;;;22.78
73761;BMP280;69240;43.530;-5.646;2023-04-24T12:43:33;101522.59;;;22.97
73761;BMP280;69240;43.530;-5.646;2023-04-24T12:45:59;101523.13;;;23.08
73761;BMP280;69240;43.530;-5.646;2023-04-24T12:48:28;101514.94;;;23.08
73761;BMP280;69240;43.530;-5.646;2023-04-24T12:50:54;101517.09;;;22.71
73761;BMP280;69240;43.530;-5.646;2023-04-24T12:53:21;101521.88;;;22.02
73761;BMP280;69240;43.530;-5.646;2023-04-24T12:55:47;101522.38;;;23.08
73761;BMP280;69240;43.530;-5.646;2023-04-24T12:58:19;101506.50;;;23.45
73761;BMP280;69240;43.530;-5.646;2023-04-24T13:00:46;101508.59;;;23.85
73761;BMP280;69240;43.530;-5.646;2023-04-24T13:03:12;101507.16;;;24.25
73761;BMP280;69240;43.530;-5.646;2023-04-24T13:05:37;101499.78;;;24.33
73761;BMP280;69240;43.530;-5.646;2023-04-24T13:08:03;101494.41;;;24.48
73761;BMP280;69240;43.530;-5.646;2023-04-24T13:10:29;101498.88;;;23.77
73761;BMP280;69240;43.530;-5.646;2023-04-24T13:12:55;101485.88;;;23.90
73761;BMP280;69240;43.530;-5.646;2023-04-24T13:15:20;101488.78;;;23.72
73761;BMP280;69240;43.530;-5.646;2023-04-24T13:17:46;101480.31;;;24.65
73761;BMP280;69240;43.530;-5.646;2023-04-24T13:20:11;101485.88;;;24.87
73761;BMP280;69240;43.530;-5.646;2023-04-24T13:22:37;101486.25;;;24.84
73761;BMP280;69240;43.530;-5.646;2023-04-24T13:25:02;101478.38;;;25.16
73761;BMP280;69240;43.530;-5.646;2023-04-24T13:27:28;101468.41;;;24.34
73761;BMP280;69240;43.530;-5.646;2023-04-24T13:29:54;101468.38;;;24.62
73761;BMP280;69240;43.530;-5.646;2023-04-24T13:32:19;101475.44;;;24.50
73761;BMP280;69240;43.530;-5.646;2023-04-24T13:34:45;101473.47;;;23.89
73761;BMP280;69240;43.530;-5.646;2023-04-24T13:37:11;101480.47;;;23.98
73761;BMP280;69240;43.530;-5.646;2023-04-24T13:39:36;101475.00;;;23.98
73761;BMP280;69240;43.530;-5.646;2023-04-24T13:42:02;101466.94;;;23.59
73761;BMP280;69240;43.530;-5.646;2023-04-24T13:44:28;101476.53;;;23.53
73761;BMP280;69240;43.530;-5.646;2023-04-24T13:46:54;101465.06;;;23.21
73761;BMP280;69240;43.530;-5.646;2023-04-24T13:49:22;101469.56;;;22.79
73761;BMP280;69240;43.530;-5.646;2023-04-24T13:51:50;101471.25;;;22.25
73761;BMP280;69240;43.530;-5.646;2023-04-24T13:54:15;101473.88;;;21.99
73761;BMP280;69240;43.530;-5.646;2023-04-24T13:56:41;101479.97;;;22.05
73761;BMP280;69240;43.530;-5.646;2023-04-24T13:59:07;101469.09;;;22.49
73761;BMP280;69240;43.530;-5.646;2023-04-24T14:01:32;101470.28;;;23.32
73761;BMP280;69240;43.530;-5.646;2023-04-24T14:03:58;101446.47;;;22.93
73761;BMP280;69240;43.530;-5.646;2023-04-24T14:06:23;101449.66;;;23.31
73761;BMP280;69240;43.530;-5.646;2023-04-24T14:08:50;101442.91;;;23.58
73761;BMP280;69240;43.530;-5.646;2023-04-24T14:11:16;101449.97;;;23.73
73761;BMP280;69240;43.530;-5.646;2023-04-24T14:13:42;101440.41;;;24.00